Time;durP1;ratioP1;P1;durP2;ratioP2;P2;SDS_P1;SDS_P2;PMS_P1;PMS_P2;Temp;Humidity;BMP_temperature;BMP_pressure;BME280_temperature;BME280_humidity;BME280_pressure;Samples;Min_cycle;Max_cycle;Signal;HPM_P1;HPM_P2
2021/06/18 00:01:06;;;;;;;15.80;12.98;;;23.10;74.10;;;;;;5112493;28;20098;-75
2021/06/18 00:03:32;;;;;;;15.75;11.15;;;23.10;74.40;;;;;;5114599;28;20023;-75
2021/06/18 00:05:58;;;;;;;18.50;14.15;;;23.10;74.30;;;;;;5117475;28;20028;-75
2021/06/18 00:08:23;;;;;;;18.15;15.65;;;23.10;74.70;;;;;;5120637;28;20031;-75
2021/06/18 00:10:49;;;;;;;24.27;15.88;;;23.00;74.50;;;;;;5135167;28;20023;-74
2021/06/18 00:13:15;;;;;;;12.98;10.82;;;23.00;74.90;;;;;;5124362;28;20032;-75
2021/06/18 00:15:40;;;;;;;13.52;10.32;;;23.00;74.70;;;;;;5115106;28;20043;-76
2021/06/18 00:18:06;;;;;;;16.80;14.50;;;22.90;74.30;;;;;;5116244;28;20479;-75
2021/06/18 00:20:31;;;;;;;16.63;14.43;;;22.90;75.00;;;;;;5115157;28;20399;-76
2021/06/18 00:22:57;;;;;;;14.60;12.07;;;22.90;75.00;;;;;;5116319;28;20102;-75
2021/06/18 00:25:22;;;;;;;15.50;11.32;;;22.90;75.00;;;;;;5117122;28;20463;-76
2021/06/18 00:27:48;;;;;;;19.88;15.77;;;22.80;73.70;;;;;;5116640;28;20429;-75
2021/06/18 00:30:14;;;;;;;18.02;14.73;;;22.80;75.20;;;;;;5116254;28;20297;-75
2021/06/18 00:32:40;;;;;;;16.13;12.98;;;22.80;75.40;;;;;;5116475;28;20024;-75
2021/06/18 00:35:06;;;;;;;21.02;14.40;;;22.70;75.00;;;;;;5115826;28;20081;-76
2021/06/18 00:37:34;;;;;;;20.60;17.63;;;22.80;74.50;;;;;;5115047;28;20332;-76
2021/06/18 00:40:00;;;;;;;13.50;10.10;;;22.80;74.90;;;;;;5114759;28;20058;-76
2021/06/18 00:42:25;;;;;;;15.00;12.82;;;22.60;74.10;;;;;;5114620;28;20020;-75
2021/06/18 00:44:51;;;;;;;21.73;18.80;;;22.60;74.80;;;;;;5116460;28;20050;-75
2021/06/18 00:47:22;;;;;;;23.08;20.65;;;22.60;75.40;;;;;;5114664;28;20051;-75
2021/06/18 00:49:48;;;;;;;21.60;18.02;;;22.60;75.90;;;;;;5114879;28;20020;-75
2021/06/18 00:52:16;;;;;;;15.90;13.70;;;22.60;75.70;;;;;;5114394;28;20024;-76
2021/06/18 00:54:43;;;;;;;28.23;21.85;;;22.60;75.10;;;;;;5114447;28;20026;-76
2021/06/18 00:57:09;;;;;;;15.43;13.07;;;22.50;75.90;;;;;;5114470;28;20045;-75
2021/06/18 00:59:34;;;;;;;20.42;18.23;;;22.50;75.20;;;;;;5115871;28;20525;-76
2021/06/18 01:02:00;;;;;;;25.83;22.85;;;22.40;75.20;;;;;;5115812;28;20081;-73
2021/06/18 01:04:34;;;;;;;21.92;19.40;;;22.40;76.20;;;;;;5116293;28;20062;-76
2021/06/18 01:07:27;;;;;;;31.52;25.75;;;22.40;76.40;;;;;;5115821;28;20043;-75
2021/06/18 01:10:20;;;;;;;21.98;17.90;;;22.40;76.70;;;;;;5114652;28;20059;-75
2021/06/18 01:12:56;;;;;;;30.92;24.25;;;22.30;76.90;;;;;;5115853;28;20457;-75
2021/06/18 01:15:32;;;;;;;30.08;26.77;;;22.30;77.10;;;;;;5112922;28;20426;-75
2021/06/18 01:18:05;;;;;;;25.85;22.38;;;22.30;77.30;;;;;;5116178;28;20035;-76
2021/06/18 01:20:59;;;;;;;25.40;22.55;;;22.20;76.30;;;;;;5125648;28;20024;-76
2021/06/18 01:23:27;;;;;;;20.77;18.63;;;22.20;77.00;;;;;;5125819;28;20029;-75
2021/06/18 01:26:14;;;;;;;27.77;23.17;;;22.20;75.90;;;;;;5121099;28;20033;-75
2021/06/18 01:29:06;;;;;;;26.95;24.25;;;22.20;76.80;;;;;;5115806;28;20023;-75
2021/06/18 01:31:38;;;;;;;13.52;11.57;;;22.20;76.90;;;;;;5113678;28;20091;-75
2021/06/18 01:34:14;;;;;;;24.50;21.88;;;22.20;74.50;;;;;;5115579;28;20028;-77
2021/06/18 01:36:42;;;;;;;25.60;20.60;;;22.20;75.90;;;;;;5114100;28;20023;-76
2021/06/18 01:39:09;;;;;;;26.77;20.95;;;22.20;76.30;;;;;;5114876;28;20031;-75
2021/06/18 01:41:36;;;;;;;23.38;20.95;;;22.20;76.30;;;;;;5115579;28;20076;-75
2021/06/18 01:44:03;;;;;;;14.80;11.73;;;22.20;76.30;;;;;;5113645;28;20110;-76
2021/06/18 01:46:32;;;;;;;24.90;21.02;;;22.10;75.60;;;;;;5113945;28;20032;-76
2021/06/18 01:49:00;;;;;;;26.30;23.45;;;22.10;76.60;;;;;;5114007;28;20031;-76
2021/06/18 01:51:28;;;;;;;30.67;25.63;;;22.20;76.00;;;;;;5114935;28;20135;-76
2021/06/18 01:53:56;;;;;;;27.70;24.70;;;22.10;77.30;;;;;;5113690;28;20076;-75
2021/06/18 01:56:22;;;;;;;36.13;27.10;;;22.20;77.50;;;;;;5113711;28;20020;-74
2021/06/18 01:58:51;;;;;;;20.60;18.23;;;22.10;77.40;;;;;;5114578;28;20035;-75
2021/06/18 02:01:19;;;;;;;30.92;27.70;;;22.10;76.60;;;;;;5114933;28;20024;-75
2021/06/18 02:03:46;;;;;;;27.65;24.38;;;22.10;77.20;;;;;;5113318;28;20020;-75
2021/06/18 02:06:14;;;;;;;28.15;25.15;;;22.10;77.50;;;;;;5114968;28;20028;-75
2021/06/18 02:08:42;;;;;;;29.75;26.63;;;22.00;77.80;;;;;;5117058;28;20120;-76
2021/06/18 02:11:08;;;;;;;26.10;23.13;;;22.00;77.80;;;;;;5127104;28;20243;-75
2021/06/18 02:13:35;;;;;;;28.70;24.92;;;22.00;76.80;;;;;;5114259;28;20047;-75
2021/06/18 02:16:02;;;;;;;20.98;18.70;;;22.00;77.50;;;;;;5113013;28;20053;-75
2021/06/18 02:18:31;;;;;;;32.30;28.67;;;22.00;77.40;;;;;;5113638;28;20063;-76
2021/06/18 02:20:59;;;;;;;24.95;20.25;;;22.00;78.00;;;;;;5114395;27;20076;-76
2021/06/18 02:23:28;;;;;;;25.33;22.42;;;22.00;77.90;;;;;;5113970;28;20027;-75
2021/06/18 02:25:58;;;;;;;28.60;23.23;;;22.00;78.10;;;;;;5112548;28;20063;-76
2021/06/18 02:28:24;;;;;;;20.63;17.17;;;22.10;77.70;;;;;;5112659;28;20031;-75
2021/06/18 02:30:51;;;;;;;35.00;31.23;;;22.10;77.70;;;;;;5113978;28;20023;-75
2021/06/18 02:33:16;;;;;;;31.75;27.85;;;22.10;78.00;;;;;;5114105;28;20034;-75
2021/06/18 02:35:44;;;;;;;26.20;23.23;;;22.10;78.10;;;;;;5112815;28;20020;-75
2021/06/18 02:38:12;;;;;;;32.30;26.95;;;22.10;77.90;;;;;;5113651;28;20037;-75
2021/06/18 02:40:38;;;;;;;32.03;28.55;;;22.10;78.10;;;;;;5113660;28;20024;-75
2021/06/18 02:43:04;;;;;;;33.88;27.25;;;22.10;78.10;;;;;;5113800;28;20161;-76
2021/06/18 02:45:30;;;;;;;23.38;18.77;;;22.10;78.30;;;;;;5112342;28;20030;-76
2021/06/18 02:48:01;;;;;;;32.22;28.25;;;22.10;78.00;;;;;;5113439;27;20430;-77
2021/06/18 02:50:36;;;;;;;28.00;25.08;;;22.10;78.10;;;;;;5113555;28;20474;-75
2021/06/18 02:53:13;;;;;;;23.88;20.85;;;22.00;78.20;;;;;;5113755;28;20026;-77
2021/06/18 02:55:50;;;;;;;30.23;26.90;;;22.00;78.20;;;;;;5112380;28;20369;-76
2021/06/18 02:58:22;;;;;;;32.78;28.33;;;22.00;78.40;;;;;;5113382;28;20479;-76
2021/06/18 03:00:49;;;;;;;22.40;18.05;;;22.00;78.80;;;;;;5112203;28;20019;-75
2021/06/18 03:03:29;;;;;;;17.52;15.18;;;22.00;78.40;;;;;;5112143;28;20055;-76
2021/06/18 03:05:58;;;;;;;27.40;24.55;;;22.00;76.50;;;;;;5112298;28;20035;-77
2021/06/18 03:08:30;;;;;;;37.80;33.70;;;22.00;78.30;;;;;;5112068;28;20440;-76
2021/06/18 03:10:56;;;;;;;33.22;29.75;;;21.90;78.50;;;;;;5113529;28;20081;-75
2021/06/18 03:13:34;;;;;;;29.15;25.65;;;21.90;78.80;;;;;;5112006;28;20028;-75
2021/06/18 03:16:02;;;;;;;20.73;18.50;;;21.80;79.00;;;;;;5113284;28;20075;-75
2021/06/18 03:18:29;;;;;;;26.60;23.45;;;21.80;79.10;;;;;;5112008;28;20419;-75
2021/06/18 03:20:57;;;;;;;34.28;28.42;;;21.80;78.00;;;;;;5113952;28;20065;-75
2021/06/18 03:23:24;;;;;;;38.30;34.08;;;21.80;78.00;;;;;;5128164;28;20045;-74
2021/06/18 03:25:50;;;;;;;19.52;17.40;;;21.80;79.10;;;;;;5132118;28;20027;-76
2021/06/18 03:28:17;;;;;;;34.55;30.80;;;21.80;77.60;;;;;;5127058;28;20181;-75
2021/06/18 03:30:47;;;;;;;25.77;22.30;;;21.70;78.80;;;;;;5123209;28;20024;-76
2021/06/18 03:33:13;;;;;;;24.55;20.55;;;21.70;77.80;;;;;;5113323;28;20024;-76
2021/06/18 03:35:40;;;;;;;33.50;29.95;;;21.70;78.70;;;;;;5111913;28;20021;-76
2021/06/18 03:38:06;;;;;;;24.02;18.90;;;21.70;76.40;;;;;;5112380;28;20032;-76
2021/06/18 03:40:35;;;;;;;29.98;26.77;;;21.70;76.20;;;;;;5112480;28;20016;-76
2021/06/18 03:43:00;;;;;;;37.25;33.33;;;21.70;77.70;;;;;;5112660;28;20406;-74
2021/06/18 03:45:26;;;;;;;31.52;27.85;;;21.80;78.60;;;;;;5111460;28;20069;-76
2021/06/18 03:47:52;;;;;;;38.30;33.85;;;21.70;78.90;;;;;;5111860;28;20396;-76
2021/06/18 03:50:22;;;;;;;33.22;28.80;;;21.80;79.00;;;;;;5111491;28;20016;-75
2021/06/18 03:52:48;;;;;;;34.72;31.02;;;21.80;76.60;;;;;;5111569;28;20012;-76
2021/06/18 03:55:14;;;;;;;30.20;27.17;;;21.90;79.30;;;;;;5112510;28;20104;-76
2021/06/18 03:57:42;;;;;;;32.22;29.00;;;22.00;79.40;;;;;;5111634;28;20023;-75
2021/06/18 04:00:09;;;;;;;33.03;29.42;;;22.00;78.80;;;;;;5111877;28;20040;-75
2021/06/18 04:02:36;;;;;;;34.05;29.90;;;22.10;78.40;;;;;;5120337;28;20015;-75
2021/06/18 04:05:02;;;;;;;26.00;23.27;;;22.20;78.80;;;;;;5113633;28;20034;-75
2021/06/18 04:07:30;;;;;;;38.38;34.33;;;22.20;78.30;;;;;;5111561;28;20047;-76
2021/06/18 04:09:57;;;;;;;37.35;33.40;;;22.20;78.50;;;;;;5111834;28;20118;-76
2021/06/18 04:12:23;;;;;;;35.58;31.75;;;22.30;78.70;;;;;;5111924;28;20020;-74
2021/06/18 04:14:49;;;;;;;37.28;29.95;;;22.30;78.80;;;;;;5119015;28;20030;-75
2021/06/18 04:17:14;;;;;;;32.95;29.33;;;22.30;79.10;;;;;;5111062;28;20408;-77
2021/06/18 04:19:41;;;;;;;35.47;30.65;;;22.10;77.80;;;;;;5111330;28;20135;-76
2021/06/18 04:22:10;;;;;;;31.55;27.83;;;22.00;78.40;;;;;;5112997;28;20055;-76
2021/06/18 04:24:36;;;;;;;11.00;8.63;;;21.80;78.60;;;;;;5111024;28;20023;-77
2021/06/18 04:27:02;;;;;;;28.95;24.17;;;21.90;75.00;;;;;;5111270;28;20107;-76
2021/06/18 04:29:28;;;;;;;40.95;36.60;;;21.80;77.90;;;;;;5111075;28;20122;-76
2021/06/18 04:31:54;;;;;;;33.90;30.30;;;21.70;83.30;;;;;;5112277;28;20428;-76
2021/06/18 04:34:19;;;;;;;32.65;29.15;;;21.60;83.10;;;;;;5111163;28;20383;-76
2021/06/18 04:36:45;;;;;;;35.83;31.38;;;21.70;83.40;;;;;;5111260;28;20514;-76
2021/06/18 04:39:11;;;;;;;36.13;32.40;;;21.60;84.40;;;;;;5111080;28;20054;-78
2021/06/18 04:41:37;;;;;;;35.63;30.15;;;21.60;85.20;;;;;;5110912;28;20020;-76
2021/06/18 04:44:04;;;;;;;30.48;26.30;;;21.60;85.40;;;;;;5111072;28;20031;-77
2021/06/18 04:46:29;;;;;;;25.67;22.73;;;21.60;85.60;;;;;;5111026;28;20035;-77
2021/06/18 04:48:55;;;;;;;28.42;24.30;;;21.50;85.40;;;;;;5114657;28;20407;-76
2021/06/18 04:51:21;;;;;;;32.90;28.17;;;21.50;86.50;;;;;;5114649;28;20374;-77
2021/06/18 04:53:51;;;;;;;36.13;31.90;;;21.40;84.90;;;;;;5116093;28;20022;-76
2021/06/18 04:56:17;;;;;;;32.97;29.48;;;21.30;85.40;;;;;;5115924;28;20026;-77
2021/06/18 04:58:42;;;;;;;10.55;6.78;;;21.30;87.40;;;;;;5114971;28;20027;-79
2021/06/18 05:01:08;;;;;;;13.80;11.32;;;21.20;80.10;;;;;;5116088;28;20028;-84
2021/06/18 05:03:34;;;;;;;38.20;29.33;;;21.20;78.90;;;;;;5116442;28;20679;-81
2021/06/18 05:06:00;;;;;;;30.52;22.35;;;21.10;83.10;;;;;;5116178;28;20022;-79
2021/06/18 05:08:25;;;;;;;10.35;8.55;;;21.00;81.70;;;;;;5114821;28;20069;-82
2021/06/18 05:10:51;;;;;;;16.08;13.13;;;21.00;80.40;;;;;;5115339;28;20051;-81
2021/06/18 05:13:16;;;;;;;19.08;17.00;;;21.00;79.60;;;;;;5115332;28;20026;-81
2021/06/18 05:15:42;;;;;;;22.45;20.02;;;21.00;81.60;;;;;;5124686;28;20035;-80
2021/06/18 05:18:08;;;;;;;24.45;20.65;;;21.00;82.00;;;;;;5116346;28;20031;-82
2021/06/18 05:20:33;;;;;;;28.15;25.15;;;21.00;84.10;;;;;;5114784;28;20016;-82
2021/06/18 05:22:59;;;;;;;11.02;9.18;;;21.00;84.20;;;;;;5115280;28;20023;-81
2021/06/18 05:25:25;;;;;;;28.67;25.65;;;21.10;81.20;;;;;;5119845;28;20498;-80
2021/06/18 05:27:50;;;;;;;29.05;25.90;;;21.10;81.70;;;;;;5128226;28;20038;-80
2021/06/18 05:30:17;;;;;;;31.45;28.20;;;21.10;83.00;;;;;;5124408;28;20152;-80
2021/06/18 05:32:44;;;;;;;27.23;24.48;;;21.20;87.50;;;;;;5125580;28;20000;-81
2021/06/18 05:35:10;;;;;;;29.77;26.63;;;21.20;84.00;;;;;;5125745;28;20099;-81
2021/06/18 05:37:35;;;;;;;24.40;21.77;;;21.40;85.00;;;;;;5113768;28;20061;-79
2021/06/18 05:40:03;;;;;;;24.23;19.13;;;21.40;87.50;;;;;;5114393;28;20076;-78
2021/06/18 05:42:28;;;;;;;22.20;19.55;;;21.50;85.90;;;;;;5114236;28;20035;-79
2021/06/18 05:44:54;;;;;;;27.73;23.08;;;21.50;83.70;;;;;;5114458;28;20020;-78
2021/06/18 05:47:20;;;;;;;29.77;26.58;;;21.60;84.20;;;;;;5114147;28;20015;-79
2021/06/18 05:49:45;;;;;;;32.75;29.08;;;21.60;88.30;;;;;;5114637;28;20399;-79
2021/06/18 05:52:11;;;;;;;30.90;27.85;;;21.70;87.40;;;;;;5128978;28;20031;-79
2021/06/18 05:54:37;;;;;;;27.73;24.80;;;21.70;88.80;;;;;;5114935;28;20038;-79
2021/06/18 05:57:03;;;;;;;43.10;38.63;;;21.60;87.50;;;;;;5115944;28;20020;-80
2021/06/18 05:59:28;;;;;;;45.08;40.28;;;21.70;89.50;;;;;;5113423;28;20127;-80
2021/06/18 06:01:54;;;;;;;37.35;33.58;;;21.80;90.10;;;;;;5113427;28;20059;-79
2021/06/18 06:04:20;;;;;;;37.03;33.28;;;21.70;89.50;;;;;;5113899;28;20012;-80
2021/06/18 06:06:45;;;;;;;39.35;35.47;;;21.80;90.20;;;;;;5115676;28;20023;-81
2021/06/18 06:09:11;;;;;;;30.58;27.38;;;21.80;89.90;;;;;;5114517;28;20388;-80
2021/06/18 06:11:37;;;;;;;21.88;19.42;;;21.90;89.30;;;;;;5114636;28;20027;-80
2021/06/18 06:14:04;;;;;;;43.30;38.92;;;21.90;88.60;;;;;;5123845;28;20016;-79
2021/06/18 06:16:31;;;;;;;18.33;16.38;;;21.90;88.20;;;;;;5133410;28;20059;-80
2021/06/18 06:18:58;;;;;;;37.28;33.45;;;22.00;84.80;;;;;;5114037;28;20034;-79
2021/06/18 06:21:24;;;;;;;23.77;21.20;;;22.10;87.50;;;;;;5115001;27;20035;-79
2021/06/18 06:23:50;;;;;;;31.25;27.95;;;22.20;84.80;;;;;;5115084;28;20100;-79
2021/06/18 06:26:20;;;;;;;26.98;24.13;;;22.30;87.70;;;;;;5113895;28;20023;-79
2021/06/18 06:28:46;;;;;;;26.05;23.35;;;22.40;84.00;;;;;;5123930;28;20027;-79
2021/06/18 06:31:12;;;;;;;21.98;18.83;;;22.60;86.10;;;;;;5113107;28;20028;-79
2021/06/18 06:33:38;;;;;;;11.07;9.27;;;22.70;78.10;;;;;;5113129;28;20031;-79
2021/06/18 06:36:04;;;;;;;10.73;9.13;;;22.80;76.60;;;;;;5113392;28;20034;-80
2021/06/18 06:38:29;;;;;;;25.65;23.17;;;23.00;74.20;;;;;;5113035;28;20024;-79
2021/06/18 06:40:55;;;;;;;28.20;25.40;;;23.10;78.60;;;;;;5114885;28;20023;-79
2021/06/18 06:43:21;;;;;;;18.63;15.38;;;23.20;82.30;;;;;;5114071;28;20023;-77
2021/06/18 06:45:47;;;;;;;22.88;20.42;;;23.30;78.10;;;;;;5113103;28;20089;-77
2021/06/18 06:48:13;;;;;;;17.70;15.90;;;23.50;80.20;;;;;;5112753;28;20356;-78
2021/06/18 06:50:39;;;;;;;22.85;20.58;;;23.60;80.50;;;;;;5113921;28;20092;-77
2021/06/18 06:53:06;;;;;;;20.90;18.80;;;23.70;79.30;;;;;;5113788;28;20102;-78
2021/06/18 06:55:32;;;;;;;13.32;11.63;;;23.80;78.70;;;;;;5112677;28;20115;-77
2021/06/18 06:57:58;;;;;;;17.95;16.10;;;23.70;77.40;;;;;;5112826;28;20059;-76
2021/06/18 07:00:24;;;;;;;14.52;12.88;;;23.70;77.10;;;;;;5112828;28;20034;-77
2021/06/18 07:02:49;;;;;;;20.85;17.42;;;23.70;75.40;;;;;;5117162;28;20024;-77
2021/06/18 07:05:15;;;;;;;18.40;16.60;;;23.70;76.90;;;;;;5122124;28;20379;-77
2021/06/18 07:07:40;;;;;;;22.33;20.23;;;23.60;80.20;;;;;;5112394;28;20348;-77
2021/06/18 07:10:07;;;;;;;22.25;20.02;;;23.50;82.00;;;;;;5112702;28;20035;-77
2021/06/18 07:12:33;;;;;;;17.35;15.65;;;23.60;81.30;;;;;;5111625;28;20223;-76
2021/06/18 07:14:59;;;;;;;23.55;21.15;;;23.70;81.90;;;;;;5114107;28;20031;-77
2021/06/18 07:17:25;;;;;;;26.10;22.05;;;23.90;80.90;;;;;;5111970;28;20391;-77
2021/06/18 07:19:52;;;;;;;16.10;14.45;;;23.90;82.00;;;;;;5113847;28;20038;-77
2021/06/18 07:22:20;;;;;;;28.13;25.27;;;24.10;78.70;;;;;;5112081;28;20031;-77
2021/06/18 07:24:46;;;;;;;24.63;22.08;;;24.20;82.00;;;;;;5111937;28;20051;-76
2021/06/18 07:27:13;;;;;;;30.60;27.45;;;24.20;79.70;;;;;;5112227;28;20020;-77
2021/06/18 07:29:39;;;;;;;14.70;13.15;;;24.20;80.00;;;;;;5113060;28;20019;-77
2021/06/18 07:32:05;;;;;;;11.50;9.85;;;24.20;77.50;;;;;;5129594;28;20011;-77
2021/06/18 07:34:31;;;;;;;18.80;16.90;;;24.30;75.20;;;;;;5120648;28;20050;-77
2021/06/18 07:36:56;;;;;;;19.00;17.20;;;24.30;78.50;;;;;;5112356;28;20016;-76
2021/06/18 07:39:22;;;;;;;21.83;19.63;;;24.40;74.60;;;;;;5125364;28;20027;-77
2021/06/18 07:41:47;;;;;;;23.55;19.77;;;24.40;76.70;;;;;;5116751;28;20022;-76
2021/06/18 07:44:13;;;;;;;23.80;20.98;;;24.30;78.30;;;;;;5112652;28;20531;-77
2021/06/18 07:46:39;;;;;;;29.58;26.58;;;24.20;80.20;;;;;;5112972;28;20098;-78
2021/06/18 07:49:04;;;;;;;24.42;22.02;;;24.20;77.60;;;;;;5113018;28;20027;-76
2021/06/18 07:51:31;;;;;;;18.40;13.80;;;24.10;78.50;;;;;;5113033;28;20027;-77
2021/06/18 07:53:56;;;;;;;27.73;25.02;;;24.00;74.40;;;;;;5113290;28;20031;-76
2021/06/18 07:56:26;;;;;;;20.52;18.08;;;23.90;78.50;;;;;;5111929;28;20027;-76
2021/06/18 07:58:52;;;;;;;18.25;16.42;;;23.90;79.00;;;;;;5111385;28;20457;-76
2021/06/18 08:01:19;;;;;;;29.65;26.67;;;23.80;79.10;;;;;;5110094;28;20429;-76
2021/06/18 08:03:44;;;;;;;10.38;8.32;;;23.70;80.10;;;;;;5108817;28;20463;-76
2021/06/18 08:06:10;;;;;;;24.35;21.90;;;23.70;73.90;;;;;;5110531;28;20020;-76
2021/06/18 08:08:36;;;;;;;12.80;11.32;;;23.70;76.80;;;;;;5111373;28;20042;-76
2021/06/18 08:11:02;;;;;;;26.27;23.48;;;23.70;76.40;;;;;;5112256;28;20106;-76
2021/06/18 08:13:28;;;;;;;19.73;17.73;;;23.60;78.70;;;;;;5114014;28;20098;-77
2021/06/18 08:15:53;;;;;;;11.23;9.85;;;23.50;77.90;;;;;;5119728;28;20070;-75
2021/06/18 08:18:19;;;;;;;12.65;10.77;;;23.50;75.80;;;;;;5129579;28;20032;-76
2021/06/18 08:20:44;;;;;;;22.80;20.48;;;23.50;74.50;;;;;;5111435;28;20015;-77
2021/06/18 08:23:10;;;;;;;19.48;17.42;;;23.40;75.60;;;;;;5111727;28;20019;-76
2021/06/18 08:25:36;;;;;;;34.17;30.90;;;23.40;77.30;;;;;;5114614;28;20369;-76
2021/06/18 08:28:01;;;;;;;26.27;23.45;;;23.30;79.40;;;;;;5114994;28;20444;-76
2021/06/18 08:30:27;;;;;;;30.55;27.40;;;23.20;76.30;;;;;;5115816;28;20107;-76
2021/06/18 08:32:53;;;;;;;36.20;32.72;;;23.10;80.10;;;;;;5116749;28;20447;-76
2021/06/18 08:35:20;;;;;;;39.55;35.65;;;23.10;80.80;;;;;;5115095;28;20015;-76
2021/06/18 08:37:46;;;;;;;20.55;18.42;;;23.10;82.40;;;;;;5114857;28;20028;-76
2021/06/18 08:40:13;;;;;;;29.75;26.75;;;23.10;79.80;;;;;;5114805;28;20438;-76
2021/06/18 08:42:39;;;;;;;21.92;19.63;;;23.10;79.90;;;;;;5114741;28;20045;-77
2021/06/18 08:45:06;;;;;;;41.70;35.60;;;23.20;77.90;;;;;;5114971;28;20023;-76
2021/06/18 08:47:31;;;;;;;34.78;31.27;;;23.20;80.50;;;;;;5115587;27;20031;-76
2021/06/18 08:49:57;;;;;;;24.02;19.80;;;23.30;77.40;;;;;;5114669;28;20031;-77
2021/06/18 08:52:23;;;;;;;20.48;18.25;;;23.40;75.40;;;;;;5120596;28;20020;-76
2021/06/18 08:54:51;;;;;;;43.95;39.55;;;23.50;76.40;;;;;;5114832;28;20038;-77
2021/06/18 08:57:19;;;;;;;41.67;36.55;;;23.60;79.60;;;;;;5115701;28;20028;-75
2021/06/18 08:59:46;;;;;;;39.15;35.30;;;23.70;80.70;;;;;;5114159;28;20057;-76
2021/06/18 09:02:13;;;;;;;34.15;30.58;;;23.80;80.90;;;;;;5115939;28;20023;-75
2021/06/18 09:05:09;;;;;;;27.60;24.92;;;23.90;80.90;;;;;;5114119;28;20022;-76
2021/06/18 09:07:47;;;;;;;9.60;8.45;;;24.10;77.10;;;;;;5114213;28;20020;-76
2021/06/18 09:10:24;;;;;;;13.82;12.43;;;24.40;76.70;;;;;;5113785;28;20023;-76
2021/06/18 09:13:23;;;;;;;16.83;15.13;;;24.70;75.60;;;;;;5112203;28;20110;-76
2021/06/18 09:15:57;;;;;;;24.10;21.75;;;25.00;75.20;;;;;;5113776;28;20020;-77
2021/06/18 09:18:32;;;;;;;19.40;17.35;;;25.40;71.70;;;;;;5115444;28;20039;-75
2021/06/18 09:21:09;;;;;;;22.90;20.33;;;25.80;70.70;;;;;;5126090;27;20094;-77
2021/06/18 09:23:38;;;;;;;15.73;13.52;;;26.30;69.10;;;;;;5134370;27;20035;-77
2021/06/18 09:26:34;;;;;;;13.73;9.52;;;26.60;66.10;;;;;;5137003;27;20055;-79
2021/06/18 09:29:08;;;;;;;19.80;15.65;;;26.80;64.50;;;;;;5138319;27;20019;-77
2021/06/18 09:31:34;;;;;;;13.35;11.95;;;26.80;65.00;;;;;;5134332;27;20023;-75
2021/06/18 09:34:01;;;;;;;21.35;19.05;;;27.10;65.70;;;;;;5135875;27;20103;-75
2021/06/18 09:36:27;;;;;;;20.52;18.08;;;27.40;65.40;;;;;;5134634;27;20019;-75
2021/06/18 09:38:56;;;;;;;21.98;19.65;;;27.50;64.00;;;;;;5134271;27;20039;-74
2021/06/18 09:41:42;;;;;;;13.63;12.20;;;27.70;64.00;;;;;;5115183;27;20023;-74
2021/06/18 09:44:09;;;;;;;18.42;15.77;;;27.90;62.90;;;;;;5113506;28;20019;-74
2021/06/18 09:46:54;;;;;;;16.27;12.05;;;28.00;62.90;;;;;;5115252;28;20115;-75
2021/06/18 09:49:29;;;;;;;16.58;14.75;;;28.10;62.00;;;;;;5114864;28;20435;-75
2021/06/18 09:51:56;;;;;;;12.30;9.50;;;28.20;62.90;;;;;;5113399;28;20016;-75
2021/06/18 09:54:23;;;;;;;15.75;13.77;;;28.30;61.70;;;;;;5115324;28;20043;-73
2021/06/18 09:56:49;;;;;;;10.98;8.75;;;28.40;61.40;;;;;;5114323;28;20127;-74
2021/06/18 09:59:22;;;;;;;20.00;17.88;;;28.50;61.10;;;;;;5114886;28;20442;-75
2021/06/18 10:01:55;;;;;;;22.42;19.17;;;28.80;61.60;;;;;;5113498;28;20031;-75
2021/06/18 10:04:23;;;;;;;14.10;12.68;;;28.90;61.80;;;;;;5114203;28;20032;-75
2021/06/18 10:06:49;;;;;;;22.95;20.48;;;29.10;61.10;;;;;;5113312;28;20024;-77
2021/06/18 10:09:15;;;;;;;9.68;8.07;;;29.20;61.30;;;;;;5113582;28;20365;-75
2021/06/18 10:11:45;;;;;;;14.63;12.35;;;29.40;60.30;;;;;;5115036;28;20502;-76
2021/06/18 10:14:14;;;;;;;22.38;19.73;;;29.50;59.70;;;;;;5117014;28;20037;-76
2021/06/18 10:16:40;;;;;;;21.58;19.38;;;29.60;59.40;;;;;;5123530;28;20255;-76
2021/06/18 10:19:06;;;;;;;16.50;14.70;;;29.60;57.70;;;;;;5118380;28;20031;-76
2021/06/18 10:21:49;;;;;;;20.10;17.83;;;29.50;58.70;;;;;;5114251;28;20054;-76
2021/06/18 10:24:16;;;;;;;10.07;7.72;;;29.70;58.10;;;;;;5113389;28;20485;-76
2021/06/18 10:26:47;;;;;;;12.20;9.48;;;29.60;59.20;;;;;;5114237;28;20023;-76
2021/06/18 10:29:29;;;;;;;18.73;16.77;;;29.80;59.00;;;;;;5113995;28;20463;-76
2021/06/18 10:31:55;;;;;;;16.98;14.55;;;29.80;57.70;;;;;;5112234;28;20031;-76
2021/06/18 10:34:20;;;;;;;28.10;22.13;;;29.70;58.40;;;;;;5114110;28;20027;-76
2021/06/18 10:36:46;;;;;;;14.60;13.05;;;29.70;59.40;;;;;;5113404;28;20032;-76
2021/06/18 10:39:20;;;;;;;15.93;11.55;;;29.90;58.60;;;;;;5113598;28;20078;-75
2021/06/18 10:41:49;;;;;;;17.50;15.45;;;29.90;58.00;;;;;;5114037;28;20023;-76
2021/06/18 10:44:37;;;;;;;11.63;7.38;;;29.90;58.10;;;;;;5112761;28;20068;-76
2021/06/18 10:47:04;;;;;;;24.45;21.92;;;30.00;59.20;;;;;;5113747;28;20065;-76
2021/06/18 10:49:40;;;;;;;24.38;21.45;;;30.20;58.50;;;;;;5113755;28;20077;-76
2021/06/18 10:52:17;;;;;;;19.20;17.20;;;30.40;57.80;;;;;;5113875;28;20055;-76
2021/06/18 10:54:53;;;;;;;24.75;21.67;;;30.40;56.70;;;;;;5112230;28;20035;-76
2021/06/18 10:57:24;;;;;;;18.50;14.07;;;30.40;56.90;;;;;;5113979;28;20489;-76
2021/06/18 10:59:55;;;;;;;16.90;14.70;;;30.20;57.90;;;;;;5112015;28;20063;-76
2021/06/18 11:02:21;;;;;;;22.10;19.70;;;30.20;58.30;;;;;;5112062;28;20023;-76
2021/06/18 11:04:49;;;;;;;28.15;25.33;;;30.20;57.20;;;;;;5111691;28;20039;-76
2021/06/18 11:07:33;;;;;;;18.27;15.80;;;30.30;56.70;;;;;;5111961;28;20019;-75
2021/06/18 11:10:01;;;;;;;17.85;15.65;;;30.40;56.90;;;;;;5111984;28;20038;-76
2021/06/18 11:12:29;;;;;;;25.38;22.90;;;30.50;57.10;;;;;;5113147;28;20472;-76
2021/06/18 11:15:02;;;;;;;24.98;22.35;;;30.70;57.80;;;;;;5111870;28;20454;-76
2021/06/18 11:17:58;;;;;;;9.70;7.72;;;30.90;55.90;;;;;;5112366;28;20096;-76
2021/06/18 11:20:46;;;;;;;26.65;23.80;;;30.90;57.40;;;;;;5113424;28;20023;-76
2021/06/18 11:23:22;;;;;;;21.13;18.73;;;31.10;55.00;;;;;;5113331;28;20047;-77
2021/06/18 11:26:03;;;;;;;13.55;7.65;;;31.30;56.70;;;;;;5113030;28;20109;-75
2021/06/18 11:28:35;;;;;;;18.83;15.85;;;31.50;57.50;;;;;;5111814;28;20109;-75
2021/06/18 11:31:05;;;;;;;19.08;17.17;;;31.60;55.70;;;;;;5111482;28;20073;-75
2021/06/18 11:33:39;;;;;;;18.10;14.52;;;31.50;54.90;;;;;;5113339;28;20023;-75
2021/06/18 11:38:45;;;;;;;23.15;20.23;;;31.50;54.30;;;;;;5112746;28;20088;-75
2021/06/18 11:41:11;;;;;;;12.93;11.27;;;31.50;55.30;;;;;;5111396;28;20024;-75
2021/06/18 11:43:40;;;;;;;25.45;22.83;;;31.50;55.90;;;;;;5113091;28;20028;-76
2021/06/18 11:46:07;;;;;;;15.30;12.33;;;31.60;55.20;;;;;;5112933;28;20023;-76
2021/06/18 11:48:33;;;;;;;29.02;21.02;;;31.70;55.00;;;;;;5111462;28;20385;-75
2021/06/18 11:50:59;;;;;;;22.13;19.35;;;31.70;55.80;;;;;;5111454;28;20106;-75
2021/06/18 11:53:38;;;;;;;14.50;11.93;;;31.70;55.80;;;;;;5113179;28;20024;-75
2021/06/18 11:56:05;;;;;;;25.60;21.48;;;31.80;56.40;;;;;;5112787;28;20024;-75
2021/06/18 11:58:39;;;;;;;17.63;15.68;;;32.00;53.00;;;;;;5113683;28;20042;-75
2021/06/18 12:01:14;;;;;;;11.52;8.55;;;32.20;53.90;;;;;;5117189;28;20027;-75
2021/06/18 12:03:41;;;;;;;12.85;10.70;;;32.40;54.60;;;;;;5116708;28;20352;-76
2021/06/18 12:06:38;;;;;;;17.95;11.93;;;32.70;53.50;;;;;;5117032;28;20027;-76
2021/06/18 12:09:09;;;;;;;14.57;11.57;;;33.00;53.60;;;;;;5116561;28;20056;-75
2021/06/18 12:11:41;;;;;;;16.13;11.98;;;33.00;53.40;;;;;;5115753;28;20378;-76
2021/06/18 12:14:09;;;;;;;19.67;16.20;;;33.00;53.30;;;;;;5117436;28;20024;-75
2021/06/18 12:16:39;;;;;;;15.10;11.75;;;32.80;51.10;;;;;;5106255;27;20048;-74
2021/06/18 12:19:24;;;;;;;19.85;17.23;;;32.80;52.40;;;;;;5096707;28;20039;-74
2021/06/18 12:22:00;;;;;;;16.23;13.48;;;32.90;55.00;;;;;;5104276;28;20123;-74
2021/06/18 12:24:28;;;;;;;18.70;16.58;;;33.10;52.80;;;;;;5094618;28;20035;-75
2021/06/18 12:26:56;;;;;;;11.02;9.77;;;33.10;52.20;;;;;;5096562;28;20024;-75
2021/06/18 12:29:22;;;;;;;13.25;10.10;;;33.10;52.50;;;;;;5096230;28;20479;-76
2021/06/18 12:31:49;;;;;;;12.65;11.07;;;33.10;53.50;;;;;;5096265;28;20020;-74
2021/06/18 12:34:15;;;;;;;14.02;9.30;;;33.00;50.60;;;;;;5096098;28;20436;-75
2021/06/18 12:36:40;;;;;;;13.00;8.27;;;33.00;52.30;;;;;;5100531;28;20035;-75
2021/06/18 12:39:11;;;;;;;15.80;10.70;;;33.10;51.90;;;;;;5095330;28;20456;-75